Terminal Aerodrome Forecast
Issued by NWS Huntsville, AL

Home | Current Version | Previous Version | Text Only | Print | Product List | Glossary On
Versions: 1 2 3 4 5 6 7 8 9 10 11 12 13 14 15 16 17 18 19 20 21 22 23 24 25 26 27 28 29 30 31 32
000
FTUS44 KHUN 291138
TAFMSL
TAF
KMSL 291138Z 2912/3012 14003KT P6SM SKC
     FM291430 15009KT P6SM SCT050
     FM291700 18011KT P6SM BKN040
     FM300700 19011KT 5SM SHRA OVC025
     FM300900 27010KT P6SM -SHRA OVC020=

USA.gov is the U.S. government's official web portal to all federal, state and local government web resources and services.